createdAt,value
2019-04-18T00:00:17.388Z,11.80
2019-04-18T00:02:56.290Z,11.80
2019-04-18T00:05:34.350Z,11.80
2019-04-18T00:08:05.408Z,11.80
2019-04-18T00:10:34.472Z,11.70
2019-04-18T00:13:07.845Z,11.70
2019-04-18T00:15:39.474Z,11.60
2019-04-18T00:18:14.793Z,11.60
2019-04-18T00:20:53.091Z,11.50
2019-04-18T00:23:29.419Z,11.50
2019-04-18T00:25:58.563Z,11.40
2019-04-18T00:28:30.571Z,11.30
2019-04-18T00:30:59.762Z,11.40
2019-04-18T00:33:40.110Z,11.30
2019-04-18T00:36:15.418Z,11.30
2019-04-18T00:39:00.389Z,11.10
2019-04-18T00:41:33.604Z,11.10
2019-04-18T00:44:09.357Z,11.10
2019-04-18T00:46:56.890Z,11.10
2019-04-18T00:49:37.260Z,11.20
2019-04-18T00:55:41.723Z,11.20
2019-04-18T00:59:02.242Z,11.10
2019-04-18T01:01:56.497Z,11.10
2019-04-18T01:04:34.069Z,11.10
2019-04-18T01:10:28.231Z,11.00
2019-04-18T01:13:16.355Z,11.00
2019-04-18T01:15:55.302Z,11.00
2019-04-18T01:18:32.784Z,10.90
2019-04-18T01:21:06.553Z,10.90
2019-04-18T01:23:55.523Z,10.80
2019-04-18T01:26:45.413Z,10.80
2019-04-18T01:29:12.564Z,10.70
2019-04-18T01:31:51.533Z,10.70
2019-04-18T01:34:48.766Z,10.80
2019-04-18T01:37:33.993Z,10.70
2019-04-18T01:40:23.476Z,10.30
2019-04-18T01:43:04.855Z,10.20
2019-04-18T01:46:14.005Z,10.00
2019-04-18T01:48:44.443Z,9.90
2019-04-18T01:51:21.506Z,9.90
2019-04-18T01:53:47.405Z,9.90
2019-04-18T01:56:15.119Z,9.90
2019-04-18T01:58:46.037Z,9.80
2019-04-18T02:01:22.512Z,9.80
2019-04-18T02:04:07.629Z,9.70
2019-04-18T02:06:49.488Z,9.80
2019-04-18T02:09:23.887Z,9.80
2019-04-18T02:11:57.045Z,9.70
2019-04-18T02:14:27.712Z,9.70
2019-04-18T02:17:01.401Z,9.60
2019-04-18T02:19:31.050Z,9.20
2019-04-18T02:22:02.715Z,9.20
2019-04-18T02:24:30.829Z,9.10
2019-04-18T02:27:01.071Z,9.00
2019-04-18T02:29:29.051Z,8.90
2019-04-18T02:32:04.939Z,8.90
2019-04-18T02:34:41.948Z,8.90
2019-04-18T02:37:14.758Z,8.90
2019-04-18T02:39:47.423Z,8.90
2019-04-18T02:42:21.512Z,9.00
2019-04-18T02:44:53.525Z,9.10
2019-04-18T02:47:24.236Z,9.30
2019-04-18T02:50:07.163Z,9.40
2019-04-18T02:52:35.723Z,9.40
2019-04-18T02:55:17.462Z,9.40
2019-04-18T02:57:48.528Z,9.40
2019-04-18T03:00:40.612Z,9.20
2019-04-18T03:03:19.931Z,9.00
2019-04-18T03:06:01.214Z,8.90
2019-04-18T03:08:34.444Z,8.80
2019-04-18T03:11:06.239Z,8.80
2019-04-18T03:13:37.158Z,8.90
2019-04-18T03:16:08.782Z,9.00
2019-04-18T03:18:36.797Z,8.80
2019-04-18T03:21:05.053Z,8.60
2019-04-18T03:23:39.840Z,8.60
2019-04-18T03:26:14.254Z,8.70
2019-04-18T03:28:46.408Z,9.00
2019-04-18T03:31:25.196Z,9.10
2019-04-18T03:33:54.518Z,9.00
2019-04-18T03:36:28.910Z,8.80
2019-04-18T03:38:59.778Z,8.50
2019-04-18T03:41:31.109Z,8.40
2019-04-18T03:44:02.512Z,8.30
2019-04-18T03:46:37.655Z,8.20
2019-04-18T03:49:10.437Z,7.90
2019-04-18T03:51:56.108Z,7.50
2019-04-18T03:54:46.275Z,7.50
2019-04-18T03:57:11.797Z,7.60
2019-04-18T03:59:55.564Z,7.60
2019-04-18T04:02:47.037Z,7.40
2019-04-18T04:05:16.903Z,7.20
2019-04-18T04:07:44.816Z,7.10
2019-04-18T04:10:26.489Z,7.10
2019-04-18T04:13:00.411Z,7.20
2019-04-18T04:15:28.735Z,7.30
2019-04-18T04:18:10.896Z,7.30
2019-04-18T04:20:43.041Z,7.40
2019-04-18T04:23:10.726Z,7.40
2019-04-18T04:25:38.505Z,7.40
2019-04-18T04:28:08.678Z,7.30
2019-04-18T04:30:36.619Z,7.40
2019-04-18T04:33:04.592Z,7.40
2019-04-18T04:36:19.768Z,7.30
2019-04-18T04:45:32.349Z,7.30
2019-04-18T04:48:02.943Z,7.30
2019-04-18T04:51:24.794Z,7.40
2019-04-18T04:54:27.218Z,7.40
2019-04-18T04:57:13.494Z,7.60
2019-04-18T04:59:51.661Z,7.60
2019-04-18T05:02:17.646Z,7.50
2019-04-18T05:04:45.787Z,7.60
2019-04-18T05:07:19.038Z,7.60
2019-04-18T05:09:47.739Z,7.60
2019-04-18T05:12:16.866Z,7.50
2019-04-18T05:14:44.601Z,7.50
2019-04-18T05:17:12.445Z,7.50
2019-04-18T05:19:45.482Z,7.50
2019-04-18T05:22:15.742Z,7.60
2019-04-18T05:24:44.649Z,7.60
2019-04-18T05:27:13.507Z,7.70
2019-04-18T05:29:41.826Z,7.70
2019-04-18T05:32:09.700Z,7.70
2019-04-18T05:34:40.874Z,7.80
2019-04-18T05:37:16.537Z,7.80
2019-04-18T05:39:59.878Z,7.90
2019-04-18T05:43:05.960Z,7.90
2019-04-18T05:45:46.000Z,8.00
2019-04-18T05:48:40.132Z,8.10
2019-04-18T05:51:17.913Z,8.10
2019-04-18T05:53:56.830Z,8.30
2019-04-18T05:56:30.384Z,8.20
2019-04-18T05:59:31.608Z,8.20
2019-04-18T06:02:34.615Z,8.30
2019-04-18T06:05:52.684Z,8.20
2019-04-18T06:09:04.366Z,8.30
2019-04-18T06:11:54.191Z,8.50
2019-04-18T06:14:45.181Z,8.70
2019-04-18T06:17:52.679Z,8.80
2019-04-18T06:20:30.757Z,8.90
2019-04-18T06:22:54.649Z,9.00
2019-04-18T06:25:39.260Z,9.20
2019-04-18T06:28:18.793Z,9.20
2019-04-18T06:31:07.352Z,9.20
2019-04-18T06:34:17.200Z,9.40
2019-04-18T06:36:58.790Z,9.60
2019-04-18T06:39:34.564Z,9.70
2019-04-18T06:42:28.628Z,9.90
2019-04-18T06:45:06.823Z,10.20
2019-04-18T06:47:42.963Z,10.30
2019-04-18T06:50:31.971Z,10.60
2019-04-18T06:53:01.719Z,10.80
2019-04-18T06:55:35.774Z,10.90
2019-04-18T06:58:35.187Z,11.10
2019-04-18T07:01:06.165Z,11.50
2019-04-18T07:03:39.257Z,12.30
2019-04-18T07:06:12.965Z,12.70
2019-04-18T07:08:52.747Z,13.50
2019-04-18T07:11:44.085Z,14.20
2019-04-18T07:14:12.732Z,14.80
2019-04-18T07:16:44.878Z,15.50
2019-04-18T07:19:39.497Z,16.60
2019-04-18T07:22:42.793Z,16.70
2019-04-18T07:25:21.312Z,17.20
2019-04-18T07:27:47.266Z,18.20
2019-04-18T07:30:21.834Z,17.90
2019-04-18T07:32:57.460Z,16.90
2019-04-18T07:35:36.326Z,17.70
2019-04-18T07:38:09.384Z,18.30
2019-04-18T07:40:43.756Z,18.20
2019-04-18T07:43:21.289Z,18.30
2019-04-18T07:46:13.750Z,17.80
2019-04-18T07:48:43.943Z,17.10
2019-04-18T07:51:13.695Z,18.20
2019-04-18T07:53:49.161Z,17.70
2019-04-18T07:56:21.965Z,19.00
2019-04-18T07:59:05.639Z,18.00
2019-04-18T08:01:29.267Z,18.30
2019-04-18T08:04:12.339Z,19.50
2019-04-18T08:06:34.724Z,18.80
2019-04-18T08:09:04.892Z,18.30
2019-04-18T08:11:48.519Z,17.90
2019-04-18T08:14:21.977Z,18.60
2019-04-18T08:16:57.385Z,17.80
2019-04-18T08:19:25.941Z,18.30
2019-04-18T08:22:14.019Z,18.10
2019-04-18T08:25:08.602Z,18.10
2019-04-18T08:27:41.075Z,18.10
2019-04-18T08:30:28.701Z,18.30
2019-04-18T08:33:00.041Z,18.20
2019-04-18T08:36:07.615Z,18.20
2019-04-18T08:38:56.712Z,19.10
2019-04-18T08:42:18.448Z,18.70
2019-04-18T08:44:56.272Z,18.70
2019-04-18T08:47:27.244Z,20.40
2019-04-18T08:50:06.313Z,20.40
2019-04-18T08:52:41.097Z,19.00
2019-04-18T08:55:44.437Z,18.30
2019-04-18T08:59:37.481Z,18.90
2019-04-18T09:02:14.522Z,18.80
2019-04-18T09:05:16.762Z,19.60
2019-04-18T09:08:03.136Z,19.60
2019-04-18T09:10:44.089Z,18.10
2019-04-18T09:13:18.356Z,18.60
2019-04-18T09:15:47.642Z,18.90
2019-04-18T09:18:24.506Z,18.70
2019-04-18T09:20:54.917Z,18.90
2019-04-18T09:23:55.085Z,19.70
2019-04-18T09:27:42.456Z,19.30
2019-04-18T09:30:53.264Z,17.70
2019-04-18T09:34:06.730Z,18.40
2019-04-18T09:36:39.696Z,18.90
2019-04-18T09:39:09.861Z,18.40
2019-04-18T09:41:37.782Z,18.00
2019-04-18T09:44:06.156Z,17.60
2019-04-18T09:46:42.709Z,18.20
2019-04-18T09:49:54.423Z,18.30
2019-04-18T09:53:24.831Z,17.90
2019-04-18T09:56:47.298Z,18.10
2019-04-18T09:59:40.751Z,18.20
2019-04-18T10:02:08.541Z,18.10
2019-04-18T10:04:36.919Z,18.20
2019-04-18T10:07:10.268Z,18.00
2019-04-18T10:09:59.805Z,18.30
2019-04-18T10:12:55.367Z,18.40
2019-04-18T10:15:28.075Z,18.20
2019-04-18T10:18:04.162Z,18.10
2019-04-18T10:20:44.012Z,18.40
2019-04-18T10:23:42.119Z,18.50
2019-04-18T10:26:34.170Z,18.50
2019-04-18T10:29:07.821Z,18.20
2019-04-18T10:31:45.614Z,18.20
2019-04-18T10:34:21.748Z,18.50
2019-04-18T10:37:08.514Z,18.20
2019-04-18T10:39:43.463Z,18.50
2019-04-18T10:42:25.145Z,18.30
2019-04-18T10:45:30.073Z,18.70
2019-04-18T10:48:05.107Z,18.70
2019-04-18T10:50:38.798Z,18.60
2019-04-18T10:53:13.618Z,18.70
2019-04-18T10:56:18.385Z,19.00
2019-04-18T11:01:54.494Z,18.80
2019-04-18T11:04:53.326Z,19.10
2019-04-18T11:07:28.458Z,18.60
2019-04-18T11:10:43.648Z,19.00
2019-04-18T11:13:20.580Z,19.20
2019-04-18T11:15:52.801Z,18.90
2019-04-18T11:18:30.751Z,18.80
2019-04-18T11:21:37.443Z,19.10
2019-04-18T11:24:15.498Z,19.10
2019-04-18T11:26:45.632Z,19.10
2019-04-18T11:29:53.727Z,19.50
2019-04-18T11:33:12.123Z,19.70
2019-04-18T11:35:51.500Z,19.20
2019-04-18T11:39:22.286Z,18.90
2019-04-18T11:42:22.802Z,19.30
2019-04-18T11:45:07.319Z,19.10
2019-04-18T11:48:17.088Z,19.20
2019-04-18T11:50:47.593Z,19.10
2019-04-18T11:53:23.883Z,20.00
2019-04-18T11:59:15.418Z,20.10
2019-04-18T12:05:51.146Z,20.10
2019-04-18T12:08:23.659Z,19.70
2019-04-18T12:11:13.829Z,19.70
2019-04-18T12:13:50.458Z,19.60
2019-04-18T12:16:35.533Z,19.60
2019-04-18T12:19:12.627Z,20.20
2019-04-18T12:22:04.539Z,20.20
2019-04-18T12:25:31.864Z,20.30
2019-04-18T12:28:30.526Z,20.60
2019-04-18T12:31:13.832Z,19.90
2019-04-18T12:33:44.178Z,19.90
2019-04-18T12:36:31.414Z,20.60
2019-04-18T12:39:01.006Z,20.50
2019-04-18T12:41:31.720Z,20.40
2019-04-18T12:44:03.939Z,21.00
2019-04-18T12:47:17.154Z,20.30
2019-04-18T12:50:28.190Z,20.60
2019-04-18T12:53:09.508Z,20.30
2019-04-18T12:55:43.121Z,20.20
2019-04-18T12:58:14.068Z,20.10
2019-04-18T13:00:42.774Z,20.10
2019-04-18T13:03:34.347Z,20.20
2019-04-18T13:06:16.111Z,20.50
2019-04-18T13:08:51.901Z,20.80
2019-04-18T13:12:13.570Z,20.90
2019-04-18T13:15:55.253Z,20.50
2019-04-18T13:18:29.663Z,20.40
2019-04-18T13:30:26.124Z,21.20
2019-04-18T13:32:55.195Z,21.10
2019-04-18T13:35:30.104Z,21.00
2019-04-18T13:38:06.458Z,20.40
2019-04-18T13:40:38.384Z,20.60
2019-04-18T13:43:09.502Z,21.00
2019-04-18T13:45:50.163Z,21.40
2019-04-18T13:48:32.784Z,21.30
2019-04-18T13:51:49.815Z,21.20
2019-04-18T13:54:20.897Z,21.20
2019-04-18T13:57:37.083Z,21.30
2019-04-18T14:00:21.760Z,21.30
2019-04-18T14:03:01.417Z,21.10
2019-04-18T14:05:29.232Z,20.60
2019-04-18T14:08:25.817Z,21.00
2019-04-18T14:11:23.967Z,21.00
2019-04-18T14:14:59.997Z,20.80
2019-04-18T14:17:30.887Z,21.20
2019-04-18T14:20:35.066Z,21.20
2019-04-18T14:23:22.920Z,20.70
2019-04-18T14:25:56.193Z,21.00
2019-04-18T14:28:44.352Z,21.00
2019-04-18T14:32:10.902Z,20.50
2019-04-18T14:35:07.646Z,20.60
2019-04-18T14:37:58.633Z,21.00
2019-04-18T14:41:15.098Z,21.20
2019-04-18T14:43:48.154Z,21.30
2019-04-18T14:46:18.652Z,21.30
2019-04-18T14:49:50.620Z,21.40
2019-04-18T14:52:35.470Z,21.00
2019-04-18T14:55:48.419Z,20.90
2019-04-18T14:58:54.407Z,21.00
2019-04-18T15:01:26.823Z,21.20
2019-04-18T15:04:32.236Z,21.00
2019-04-18T15:07:23.936Z,20.50
2019-04-18T15:09:54.530Z,20.60
2019-04-18T15:12:43.658Z,21.10
2019-04-18T15:15:34.058Z,20.80
2019-04-18T15:18:23.645Z,20.90
2019-04-18T15:21:24.511Z,20.70
2019-04-18T15:24:04.773Z,20.80
2019-04-18T15:26:47.601Z,20.70
2019-04-18T15:29:16.341Z,20.70
2019-04-18T15:31:47.690Z,20.90
2019-04-18T15:34:14.742Z,20.80
2019-04-18T15:36:44.235Z,20.90
2019-04-18T15:39:17.259Z,20.70
2019-04-18T15:42:13.216Z,20.60
2019-04-18T15:44:52.167Z,20.50
2019-04-18T15:47:24.803Z,20.70
2019-04-18T15:50:34.865Z,20.60
2019-04-18T15:53:41.342Z,20.80
2019-04-18T15:56:15.779Z,20.50
2019-04-18T15:58:50.949Z,20.70
2019-04-18T16:01:26.200Z,20.70
2019-04-18T16:07:40.192Z,20.60
2019-04-18T16:10:19.371Z,20.50
2019-04-18T16:13:18.278Z,20.30
2019-04-18T16:16:18.785Z,20.30
2019-04-18T16:18:59.672Z,20.40
2019-04-18T16:25:06.516Z,20.30
2019-04-18T16:27:40.728Z,20.30
2019-04-18T16:31:16.314Z,20.20
2019-04-18T16:34:37.603Z,20.10
2019-04-18T16:37:52.854Z,19.90
2019-04-18T16:40:22.174Z,20.00
2019-04-18T16:42:49.876Z,19.80
2019-04-18T16:45:49.826Z,19.80
2019-04-18T16:48:36.692Z,19.90
2019-04-18T16:51:10.049Z,19.80
2019-04-18T16:53:47.909Z,19.90
2019-04-18T16:56:28.207Z,19.80
2019-04-18T16:58:58.634Z,19.70
2019-04-18T17:01:40.269Z,19.80
2019-04-18T17:04:12.936Z,19.80
2019-04-18T17:07:00.406Z,19.70
2019-04-18T17:09:40.767Z,19.60
2019-04-18T17:12:11.742Z,19.50
2019-04-18T17:14:39.672Z,19.40
2019-04-18T17:17:42.977Z,19.30
2019-04-18T17:20:51.069Z,19.30
2019-04-18T17:23:46.796Z,19.30
2019-04-18T17:26:22.156Z,19.20
2019-04-18T17:29:02.642Z,19.20
2019-04-18T17:31:36.897Z,19.10
2019-04-18T17:34:22.914Z,19.10
2019-04-18T17:37:00.974Z,19.00
2019-04-18T17:39:32.826Z,19.00
2019-04-18T17:42:06.332Z,18.90
2019-04-18T17:44:48.604Z,18.90
2019-04-18T17:47:47.560Z,18.80
2019-04-18T17:50:21.905Z,18.80
2019-04-18T17:53:01.719Z,18.70
2019-04-18T17:55:42.448Z,18.60
2019-04-18T17:58:01.270Z,18.60
2019-04-18T18:00:39.156Z,18.50
2019-04-18T18:03:23.820Z,18.50
2019-04-18T18:05:44.669Z,18.40
2019-04-18T18:12:13.773Z,18.30
2019-04-18T18:19:26.227Z,18.10
2019-04-18T18:22:02.502Z,18.00
2019-04-18T18:24:30.123Z,17.90
2019-04-18T18:27:03.528Z,17.90
2019-04-18T18:30:07.107Z,17.80
2019-04-18T18:33:14.342Z,17.70
2019-04-18T18:39:40.076Z,17.50
2019-04-18T18:42:09.019Z,17.50
2019-04-18T18:44:56.054Z,17.40
2019-04-18T18:48:27.811Z,17.30
2019-04-18T18:51:19.663Z,17.20
2019-04-18T18:53:49.207Z,17.10
2019-04-18T18:56:26.021Z,17.10
2019-04-18T18:59:09.488Z,17.00
2019-04-18T19:01:37.006Z,17.00
2019-04-18T19:04:13.494Z,17.00
2019-04-18T19:07:20.477Z,16.90
2019-04-18T19:10:51.808Z,16.80
2019-04-18T19:13:30.590Z,16.60
2019-04-18T19:15:56.503Z,16.40
2019-04-18T19:18:17.207Z,16.30
2019-04-18T19:20:50.396Z,16.20
2019-04-18T19:23:30.150Z,16.10
2019-04-18T19:25:58.154Z,16.00
2019-04-18T19:28:30.504Z,16.00
2019-04-18T19:31:00.198Z,15.80
2019-04-18T19:33:35.119Z,15.80
2019-04-18T19:36:28.989Z,15.70
2019-04-18T19:39:02.352Z,15.70
2019-04-18T19:42:02.108Z,15.60
2019-04-18T19:44:28.077Z,15.50
2019-04-18T19:46:58.843Z,15.40
2019-04-18T19:50:31.887Z,15.30
2019-04-18T19:54:05.866Z,15.30
2019-04-18T19:56:46.191Z,15.20
2019-04-18T19:59:19.489Z,15.00
2019-04-18T20:02:35.088Z,15.00
2019-04-18T20:05:50.443Z,14.90
2019-04-18T20:08:23.098Z,14.80
2019-04-18T20:11:02.254Z,14.70
2019-04-18T20:13:23.156Z,14.70
2019-04-18T20:16:15.980Z,14.70
2019-04-18T20:19:17.101Z,14.60
2019-04-18T20:22:50.530Z,14.60
2019-04-18T20:25:19.647Z,14.50
2019-04-18T20:27:59.485Z,14.50
2019-04-18T20:30:30.783Z,14.40
2019-04-18T20:33:14.252Z,14.40
2019-04-18T20:35:38.552Z,14.50
2019-04-18T20:46:01.663Z,14.20
2019-04-18T20:48:35.485Z,14.10
2019-04-18T20:51:00.335Z,14.20
2019-04-18T20:53:48.229Z,14.10
2019-04-18T20:56:07.197Z,14.10
2019-04-18T20:58:39.765Z,14.10
2019-04-18T21:01:12.109Z,14.10
2019-04-18T21:03:45.345Z,14.00
2019-04-18T21:06:19.132Z,14.00
2019-04-18T21:09:05.398Z,14.00
2019-04-18T21:11:32.878Z,14.00
2019-04-18T21:14:01.340Z,14.00
2019-04-18T21:16:35.368Z,13.90
2019-04-18T21:19:04.555Z,13.90
2019-04-18T21:21:39.489Z,13.90
2019-04-18T21:24:19.548Z,14.00
2019-04-18T21:26:51.734Z,13.90
2019-04-18T21:29:24.092Z,13.90
2019-04-18T21:31:54.788Z,13.90
2019-04-18T21:34:26.671Z,13.90
2019-04-18T21:37:17.080Z,13.90
2019-04-18T21:46:33.595Z,13.60
2019-04-18T21:49:05.870Z,13.50
2019-04-18T21:51:41.889Z,13.40
2019-04-18T21:54:15.872Z,13.40
2019-04-18T21:56:53.107Z,13.40
2019-04-18T21:59:46.288Z,13.30
2019-04-18T22:02:31.232Z,13.40
2019-04-18T22:04:51.453Z,13.30
2019-04-18T22:07:41.249Z,13.30
2019-04-18T22:09:59.193Z,13.40
2019-04-18T22:12:31.062Z,13.30
2019-04-18T22:15:02.275Z,13.30
2019-04-18T22:17:32.767Z,13.30
2019-04-18T22:20:14.097Z,13.20
2019-04-18T22:22:44.745Z,13.20
2019-04-18T22:25:16.774Z,13.20
2019-04-18T22:27:55.289Z,13.10
2019-04-18T22:30:19.035Z,13.20
2019-04-18T22:33:16.273Z,13.20
2019-04-18T22:35:53.443Z,13.10
2019-04-18T22:38:30.739Z,13.20
2019-04-18T22:40:56.833Z,13.10
2019-04-18T22:43:35.965Z,13.10
2019-04-18T22:46:00.665Z,13.00
2019-04-18T22:48:35.250Z,13.00
2019-04-18T22:51:08.295Z,13.00
2019-04-18T22:53:33.910Z,13.00
2019-04-18T22:56:08.247Z,12.90
2019-04-18T22:58:36.889Z,12.90
2019-04-18T23:01:08.763Z,12.80
2019-04-18T23:03:53.092Z,12.30
2019-04-18T23:06:35.569Z,11.90
2019-04-18T23:09:07.429Z,11.80
2019-04-18T23:11:32.638Z,11.80
2019-04-18T23:14:03.472Z,11.70
2019-04-18T23:16:34.881Z,11.70
2019-04-18T23:19:07.798Z,11.70
2019-04-18T23:22:11.347Z,11.70
2019-04-18T23:24:59.534Z,11.80
2019-04-18T23:27:32.475Z,12.00
2019-04-18T23:29:58.372Z,11.90
2019-04-18T23:32:33.340Z,12.00
2019-04-18T23:35:00.549Z,12.20
2019-04-18T23:37:31.050Z,12.10
2019-04-18T23:40:09.343Z,12.10
2019-04-18T23:42:45.443Z,11.90
2019-04-18T23:45:09.405Z,11.40
2019-04-18T23:47:41.189Z,11.20
2019-04-18T23:50:11.399Z,11.00
2019-04-18T23:52:39.070Z,10.90
2019-04-18T23:55:14.896Z,10.40
2019-04-18T23:57:44.974Z,10.40
